createdAt,value
2018-01-04T00:00:02.637Z,3.5
2018-01-04T00:30:03.181Z,3.5
2018-01-04T00:45:03.062Z,3.5
2018-01-04T01:00:11.123Z,3.5
2018-01-04T01:30:26.780Z,3.5
2018-01-04T01:45:07.258Z,3.5
2018-01-04T02:00:03.000Z,3.5
2018-01-04T02:15:06.581Z,3.5
2018-01-04T02:30:21.690Z,3.5
2018-01-04T02:45:18.573Z,3.5
2018-01-04T03:00:23.675Z,3.5
2018-01-04T03:15:03.724Z,3.5
2018-01-04T03:30:17.651Z,3.4
2018-01-04T03:45:14.119Z,3.4
2018-01-04T04:00:52.993Z,3.4
2018-01-04T04:15:09.544Z,3.4
2018-01-04T04:30:05.855Z,3.4
2018-01-04T04:45:07.837Z,3.4
2018-01-04T05:00:04.113Z,3.4
2018-01-04T05:15:02.599Z,3.4
2018-01-04T05:31:20.970Z,3.4
2018-01-04T05:45:14.398Z,3.4
2018-01-04T06:00:05.112Z,3.4
2018-01-04T06:15:53.295Z,3.4
2018-01-04T06:30:13.270Z,3.4
2018-01-04T06:45:14.662Z,3.4
2018-01-04T07:00:32.377Z,3.4
2018-01-04T07:30:03.044Z,3.4
2018-01-04T07:45:05.973Z,3.4
2018-01-04T08:00:02.623Z,3.4
2018-01-04T08:15:02.899Z,3.4
2018-01-04T08:30:02.340Z,3.4
2018-01-04T08:45:03.002Z,3.4
2018-01-04T09:00:02.490Z,3.4
2018-01-04T09:15:03.436Z,3.4
2018-01-04T09:30:02.830Z,3.5
2018-01-04T10:00:21.971Z,3.5
2018-01-04T10:15:12.188Z,3.5
2018-01-04T10:30:07.908Z,3.5
2018-01-04T10:45:03.198Z,3.6
2018-01-04T11:00:02.481Z,3.6
2018-01-04T11:15:48.498Z,3.6
2018-01-04T11:45:02.985Z,3.6
2018-01-04T12:00:07.551Z,3.6
2018-01-04T12:16:17.812Z,3.6
2018-01-04T12:30:22.510Z,3.6
2018-01-04T12:45:04.054Z,3.6
2018-01-04T13:00:03.921Z,3.6
2018-01-04T13:15:03.585Z,3.6
2018-01-04T13:30:02.918Z,3.6
2018-01-04T14:00:02.758Z,3.6
2018-01-04T14:15:03.176Z,3.6
2018-01-04T14:30:02.828Z,3.6
2018-01-04T14:45:15.601Z,3.7
2018-01-04T15:00:03.234Z,3.7
2018-01-04T15:15:02.565Z,3.7
2018-01-04T15:30:04.170Z,3.7
2018-01-04T15:45:02.609Z,3.7
2018-01-04T16:00:02.839Z,3.7
2018-01-04T16:30:02.527Z,3.7
2018-01-04T16:45:07.868Z,3.8
2018-01-04T17:00:03.982Z,3.8
2018-01-04T17:15:16.045Z,3.8
2018-01-04T17:30:13.290Z,3.8
2018-01-04T17:45:03.250Z,3.8
2018-01-04T18:00:02.665Z,3.8
2018-01-04T18:15:03.103Z,3.8
2018-01-04T18:30:02.475Z,3.8
2018-01-04T18:45:05.990Z,3.8
2018-01-04T19:00:02.256Z,3.8
2018-01-04T19:15:12.596Z,3.8
2018-01-04T19:30:02.948Z,3.9
2018-01-04T19:45:04.282Z,3.9
2018-01-04T20:00:02.576Z,3.9
2018-01-04T20:15:03.130Z,3.9
2018-01-04T20:30:02.519Z,3.9
2018-01-04T20:45:02.876Z,3.9
2018-01-04T21:00:53.472Z,3.9
2018-01-04T21:15:02.880Z,4
2018-01-04T21:30:03.098Z,4
2018-01-04T21:45:02.290Z,4
2018-01-04T22:00:02.603Z,4.1
2018-01-04T22:15:06.320Z,4.1
2018-01-04T22:30:02.984Z,4.1
2018-01-04T22:45:21.323Z,4.1
2018-01-04T23:00:02.668Z,4.1
2018-01-04T23:15:03.512Z,4.1
2018-01-04T23:30:12.033Z,4.2
2018-01-04T23:45:12.704Z,4.2
